Time;durP1;ratioP1;P1;durP2;ratioP2;P2;SDS_P1;SDS_P2;PMS_P1;PMS_P2;Temp;Humidity;BMP_temperature;BMP_pressure;BME280_temperature;BME280_humidity;BME280_pressure;Samples;Min_cycle;Max_cycle;Signal;HPM_P1;HPM_P2
2023/04/08 00:02:20;;;;;;;5.45;5.05;;;9.50;99.90;;;;;;4992445;28;20117;-45
2023/04/08 00:04:45;;;;;;;5.07;4.57;;;9.50;99.90;;;;;;4992300;28;20026;-45
2023/04/08 00:07:11;;;;;;;4.68;4.28;;;9.50;99.90;;;;;;4992656;28;20022;-50
2023/04/08 00:09:37;;;;;;;5.38;4.90;;;9.50;99.90;;;;;;4992462;28;20034;-45
2023/04/08 00:12:03;;;;;;;5.25;4.70;;;9.50;99.90;;;;;;4992161;28;20503;-45
2023/04/08 00:14:28;;;;;;;4.97;4.57;;;9.40;99.90;;;;;;4992653;28;20338;-44
2023/04/08 00:16:54;;;;;;;5.03;4.55;;;9.60;99.90;;;;;;4992437;28;20093;-45
2023/04/08 00:19:19;;;;;;;4.47;4.10;;;9.50;99.90;;;;;;4992323;28;20101;-46
2023/04/08 00:21:46;;;;;;;5.50;5.00;;;9.40;99.90;;;;;;4992564;28;20072;-50
2023/04/08 00:24:11;;;;;;;5.05;4.65;;;9.50;99.90;;;;;;4992316;28;20026;-49
2023/04/08 00:26:37;;;;;;;5.68;5.05;;;9.40;99.90;;;;;;4992353;28;20092;-47
2023/04/08 00:29:02;;;;;;;5.03;4.45;;;9.40;99.90;;;;;;4992194;28;20445;-44
2023/04/08 00:31:28;;;;;;;6.03;4.90;;;9.40;99.90;;;;;;4992371;28;20165;-46
2023/04/08 00:33:54;;;;;;;7.00;4.53;;;9.40;99.90;;;;;;4992070;28;20038;-48
2023/04/08 00:36:19;;;;;;;5.32;4.82;;;9.50;99.90;;;;;;4992214;28;20054;-46
2023/04/08 00:38:45;;;;;;;5.38;4.88;;;9.50;99.90;;;;;;4992285;28;20557;-47
2023/04/08 00:41:10;;;;;;;6.38;5.32;;;9.40;99.90;;;;;;4992331;28;20030;-47
2023/04/08 00:43:36;;;;;;;6.85;6.20;;;9.40;99.90;;;;;;4992149;28;20030;-50
2023/04/08 00:46:03;;;;;;;7.72;5.88;;;9.50;99.90;;;;;;4995862;28;20054;-47
2023/04/08 00:48:30;;;;;;;6.93;5.45;;;9.40;99.90;;;;;;4995923;28;20109;-45
2023/04/08 00:50:55;;;;;;;6.80;6.05;;;9.40;99.90;;;;;;4978676;28;20019;-45
2023/04/08 00:53:21;;;;;;;6.78;5.82;;;9.40;99.90;;;;;;4996197;28;20030;-49
2023/04/08 00:55:46;;;;;;;6.60;6.00;;;9.40;99.90;;;;;;4995721;28;20402;-47
2023/04/08 00:58:13;;;;;;;5.97;5.43;;;9.40;99.90;;;;;;4995816;28;20034;-47
2023/04/08 01:00:45;;;;;;;7.68;5.50;;;9.30;99.90;;;;;;4995765;28;20030;-46
2023/04/08 01:03:21;;;;;;;7.57;5.47;;;9.30;99.90;;;;;;4995373;28;20361;-44
2023/04/08 01:06:33;;;;;;;7.10;6.40;;;9.30;99.90;;;;;;4996104;28;20022;-45
2023/04/08 01:08:59;;;;;;;6.68;5.80;;;9.30;99.90;;;;;;4962453;28;20038;-45
2023/04/08 01:11:28;;;;;;;6.90;6.20;;;9.20;99.90;;;;;;4995410;28;20037;-46
2023/04/08 01:13:55;;;;;;;7.38;6.63;;;9.10;99.90;;;;;;4995970;28;20069;-45
2023/04/08 01:16:23;;;;;;;6.43;5.82;;;9.10;99.90;;;;;;4995370;28;20381;-48
2023/04/08 01:18:50;;;;;;;7.40;6.38;;;9.10;99.90;;;;;;4995268;28;20026;-46
2023/04/08 01:21:19;;;;;;;6.65;5.97;;;9.10;99.90;;;;;;4995309;28;20026;-45
2023/04/08 01:24:04;;;;;;;7.88;6.68;;;9.10;99.90;;;;;;4995399;28;20026;-44
2023/04/08 01:26:30;;;;;;;7.75;6.43;;;9.10;99.90;;;;;;4994900;28;20038;-45
2023/04/08 01:28:59;;;;;;;7.78;6.95;;;9.10;99.90;;;;;;4977768;28;20022;-48
2023/04/08 01:31:26;;;;;;;7.28;6.53;;;9.10;99.90;;;;;;4995120;28;20021;-45
2023/04/08 01:33:52;;;;;;;8.15;6.65;;;9.10;99.90;;;;;;4995048;28;20118;-46
2023/04/08 01:36:20;;;;;;;8.93;6.60;;;9.10;99.90;;;;;;4994877;28;20033;-48
2023/04/08 01:38:47;;;;;;;8.18;6.80;;;9.00;99.90;;;;;;4994988;28;20030;-48
2023/04/08 01:41:12;;;;;;;6.95;6.13;;;9.00;99.90;;;;;;4994922;28;20506;-45
2023/04/08 01:43:42;;;;;;;8.90;7.15;;;9.00;99.90;;;;;;4994943;28;20106;-45
2023/04/08 01:46:10;;;;;;;11.52;8.18;;;9.00;99.90;;;;;;4994578;28;20037;-46
2023/04/08 01:48:36;;;;;;;12.05;7.75;;;8.90;99.90;;;;;;4995178;28;20105;-44
2023/04/08 01:51:04;;;;;;;7.80;6.30;;;8.90;99.90;;;;;;4995262;28;20026;-44
2023/04/08 01:53:30;;;;;;;7.28;6.38;;;8.90;99.90;;;;;;4995303;28;20088;-45
2023/04/08 01:56:00;;;;;;;10.43;7.72;;;8.90;99.90;;;;;;4994533;28;20486;-44
2023/04/08 01:58:32;;;;;;;7.75;6.88;;;8.90;99.90;;;;;;4995427;28;20022;-44
2023/04/08 02:00:58;;;;;;;8.13;7.30;;;8.90;99.90;;;;;;4994815;28;20096;-46
2023/04/08 02:03:26;;;;;;;9.25;7.70;;;8.80;99.90;;;;;;4994642;28;20019;-45
2023/04/08 02:05:51;;;;;;;8.23;7.30;;;8.90;99.90;;;;;;4994661;28;20098;-47
2023/04/08 02:08:17;;;;;;;9.27;7.82;;;8.90;99.90;;;;;;4994129;28;20034;-43
2023/04/08 02:10:42;;;;;;;21.05;7.65;;;8.80;99.90;;;;;;4994310;28;20395;-44
2023/04/08 02:13:08;;;;;;;11.98;8.30;;;8.90;99.90;;;;;;4994499;28;20030;-45
2023/04/08 02:15:37;;;;;;;9.75;8.05;;;8.80;99.90;;;;;;4994429;28;20037;-47
2023/04/08 02:18:11;;;;;;;10.45;7.85;;;8.80;99.90;;;;;;4994125;28;20113;-47
2023/04/08 02:20:52;;;;;;;10.13;8.03;;;8.80;99.90;;;;;;4994416;28;20023;-45
2023/04/08 02:23:23;;;;;;;10.77;8.00;;;8.80;99.90;;;;;;4993924;28;20037;-45
2023/04/08 02:25:49;;;;;;;13.23;8.93;;;8.80;99.90;;;;;;4994352;28;20022;-48
2023/04/08 02:28:17;;;;;;;10.00;8.52;;;8.70;99.90;;;;;;4994105;28;20390;-42
2023/04/08 02:30:48;;;;;;;10.25;8.52;;;8.70;99.90;;;;;;4994103;28;20026;-43
2023/04/08 02:33:16;;;;;;;10.75;8.13;;;8.70;99.90;;;;;;4994212;28;20085;-43
2023/04/08 02:35:44;;;;;;;10.63;8.30;;;8.70;99.90;;;;;;4994218;28;20082;-48
2023/04/08 02:38:10;;;;;;;11.32;9.15;;;8.70;99.90;;;;;;4994280;28;20097;-45
2023/04/08 02:40:35;;;;;;;10.18;7.57;;;8.70;99.90;;;;;;4993656;28;20101;-45
2023/04/08 02:43:01;;;;;;;12.18;8.48;;;8.60;99.90;;;;;;4993751;28;20028;-43
2023/04/08 02:45:30;;;;;;;13.52;8.20;;;8.60;99.90;;;;;;4993508;28;20029;-45
2023/04/08 02:47:57;;;;;;;10.27;7.60;;;8.60;99.90;;;;;;4976740;28;20445;-45
2023/04/08 02:50:23;;;;;;;14.15;9.48;;;8.50;99.90;;;;;;4993880;28;20073;-47
2023/04/08 02:52:48;;;;;;;9.85;8.07;;;8.50;99.90;;;;;;4993441;28;20026;-43
2023/04/08 02:55:14;;;;;;;8.93;7.55;;;8.40;99.90;;;;;;4993661;28;20091;-44
2023/04/08 02:57:40;;;;;;;14.27;8.75;;;8.30;99.90;;;;;;4993461;28;20034;-47
2023/04/08 03:00:07;;;;;;;12.20;9.15;;;8.30;99.90;;;;;;4993560;28;20061;-45
2023/04/08 03:02:32;;;;;;;12.57;8.50;;;8.20;99.90;;;;;;4993271;28;20056;-44
2023/04/08 03:04:58;;;;;;;12.80;8.70;;;8.20;99.90;;;;;;4993342;28;20490;-43
2023/04/08 03:07:24;;;;;;;11.63;8.43;;;8.10;99.90;;;;;;4993519;28;20022;-44
2023/04/08 03:09:50;;;;;;;10.90;8.32;;;8.10;99.90;;;;;;4993132;28;20059;-43
2023/04/08 03:12:16;;;;;;;11.90;9.18;;;8.00;99.90;;;;;;4975174;28;20402;-45
2023/04/08 03:14:42;;;;;;;11.73;8.45;;;7.90;99.90;;;;;;4993284;28;20568;-44
2023/04/08 03:17:07;;;;;;;11.55;9.15;;;7.80;99.90;;;;;;4993234;28;20030;-45
2023/04/08 03:19:33;;;;;;;11.93;8.95;;;7.70;99.90;;;;;;4993119;28;20034;-44
2023/04/08 03:21:58;;;;;;;15.50;7.90;;;7.70;99.90;;;;;;4992914;28;20085;-45
2023/04/08 03:24:24;;;;;;;9.95;7.85;;;7.70;99.90;;;;;;4992962;28;20102;-46
2023/04/08 03:26:49;;;;;;;12.23;8.43;;;7.60;99.90;;;;;;4975554;28;20454;-44
2023/04/08 03:29:15;;;;;;;12.38;8.07;;;7.30;99.90;;;;;;4992712;28;20029;-44
2023/04/08 03:31:40;;;;;;;10.23;8.25;;;7.50;99.90;;;;;;4992764;28;20026;-43
2023/04/08 03:34:06;;;;;;;12.25;8.00;;;7.50;99.90;;;;;;4992576;28;20039;-44
2023/04/08 03:36:31;;;;;;;12.02;9.27;;;7.50;99.90;;;;;;4992818;28;20018;-45
2023/04/08 03:38:57;;;;;;;11.32;8.32;;;7.50;99.90;;;;;;4992710;28;20037;-46
2023/04/08 03:41:22;;;;;;;15.30;9.02;;;7.50;99.90;;;;;;4992598;28;20038;-47
2023/04/08 03:43:48;;;;;;;12.50;9.00;;;7.50;99.90;;;;;;4992184;28;20033;-45
2023/04/08 03:46:13;;;;;;;11.30;9.13;;;7.50;99.90;;;;;;4992535;28;20033;-45
2023/04/08 03:48:39;;;;;;;12.13;8.48;;;7.50;99.90;;;;;;4992449;28;20035;-44
2023/04/08 03:51:05;;;;;;;12.60;9.13;;;7.50;99.90;;;;;;4992667;28;20141;-45
2023/04/08 03:53:30;;;;;;;11.80;7.90;;;7.40;99.90;;;;;;4992569;28;20029;-44
2023/04/08 03:55:56;;;;;;;12.90;8.27;;;7.50;99.90;;;;;;4992533;28;20122;-44
2023/04/08 03:58:22;;;;;;;8.90;7.65;;;7.40;99.90;;;;;;4992631;28;20037;-48
2023/04/08 04:00:47;;;;;;;13.35;7.25;;;7.40;99.90;;;;;;4992442;28;20402;-45
2023/04/08 04:03:13;;;;;;;13.73;8.25;;;7.30;99.90;;;;;;4992405;28;20030;-48
2023/04/08 04:05:39;;;;;;;10.40;7.35;;;7.20;99.90;;;;;;4992584;28;20033;-46
2023/04/08 04:08:05;;;;;;;10.88;7.55;;;7.20;99.90;;;;;;4992320;28;20054;-44
2023/04/08 04:10:30;;;;;;;10.75;8.35;;;7.20;99.90;;;;;;4992188;28;20105;-45
2023/04/08 04:12:56;;;;;;;10.07;7.88;;;7.10;99.90;;;;;;4992124;28;20046;-50
2023/04/08 04:15:21;;;;;;;7.10;6.38;;;7.00;99.90;;;;;;4992286;28;20036;-45
2023/04/08 04:17:49;;;;;;;10.13;7.13;;;7.00;99.90;;;;;;4991990;28;20034;-48
2023/04/08 04:20:16;;;;;;;9.32;7.32;;;6.90;99.90;;;;;;4991963;28;20030;-44
2023/04/08 04:22:42;;;;;;;10.25;7.53;;;6.80;99.90;;;;;;4992053;28;20026;-47
2023/04/08 04:25:08;;;;;;;11.77;7.95;;;6.80;99.90;;;;;;4974792;28;20030;-44
2023/04/08 04:27:35;;;;;;;9.70;7.47;;;6.80;99.90;;;;;;4992260;28;20053;-44
2023/04/08 04:30:01;;;;;;;8.27;6.63;;;6.80;99.90;;;;;;4992235;28;20072;-47
2023/04/08 04:32:26;;;;;;;11.00;7.70;;;6.80;99.90;;;;;;4974502;28;20027;-46
2023/04/08 04:34:52;;;;;;;8.85;7.70;;;6.70;99.90;;;;;;4992139;28;20108;-44
2023/04/08 04:37:17;;;;;;;9.77;7.50;;;6.70;99.90;;;;;;4992126;28;20029;-47
2023/04/08 04:39:43;;;;;;;9.40;7.35;;;6.70;99.90;;;;;;4992166;28;20179;-45
2023/04/08 04:42:09;;;;;;;10.50;7.55;;;6.70;99.90;;;;;;4991813;28;20035;-45
2023/04/08 04:44:34;;;;;;;9.13;7.22;;;6.70;99.90;;;;;;4992098;28;20679;-44
2023/04/08 04:47:00;;;;;;;10.23;7.70;;;6.70;99.90;;;;;;4992100;28;20034;-44
2023/04/08 04:49:25;;;;;;;9.18;6.95;;;6.60;99.90;;;;;;4991759;28;20101;-44
2023/04/08 04:51:51;;;;;;;10.10;7.40;;;6.60;99.90;;;;;;4992094;28;20478;-44
2023/04/08 04:54:16;;;;;;;9.25;7.38;;;6.50;99.90;;;;;;4992090;28;20041;-44
2023/04/08 04:56:42;;;;;;;9.25;6.93;;;6.50;99.90;;;;;;4992060;28;20026;-44
2023/04/08 04:59:07;;;;;;;7.28;6.53;;;6.50;99.90;;;;;;4992037;28;20049;-48
2023/04/08 05:01:33;;;;;;;9.60;6.45;;;6.40;99.90;;;;;;4994578;28;20058;-45
2023/04/08 05:03:59;;;;;;;8.18;6.78;;;6.50;99.90;;;;;;4991827;28;20486;-44
2023/04/08 05:06:26;;;;;;;9.05;6.47;;;6.50;99.90;;;;;;4992006;28;20023;-45
2023/04/08 05:08:51;;;;;;;9.35;7.05;;;6.50;99.90;;;;;;4991804;28;20122;-45
2023/04/08 05:11:20;;;;;;;10.77;7.78;;;6.50;99.90;;;;;;4991805;28;20030;-45
2023/04/08 05:13:46;;;;;;;9.57;7.50;;;6.60;99.90;;;;;;4992133;28;20030;-46
2023/04/08 05:16:12;;;;;;;7.68;6.80;;;6.60;99.90;;;;;;4991751;28;20033;-44
2023/04/08 05:18:38;;;;;;;7.78;6.97;;;6.60;99.90;;;;;;4974081;28;20070;-46
2023/04/08 05:21:03;;;;;;;8.18;7.00;;;6.70;99.90;;;;;;4991630;28;20409;-48
2023/04/08 05:23:29;;;;;;;8.75;6.47;;;6.70;99.90;;;;;;4991298;28;20030;-47
2023/04/08 05:25:55;;;;;;;9.32;6.80;;;6.70;99.90;;;;;;4991552;28;20545;-48
2023/04/08 05:28:20;;;;;;;10.30;6.75;;;6.70;99.90;;;;;;4991536;28;20553;-48
2023/04/08 05:30:49;;;;;;;7.78;6.82;;;6.80;99.90;;;;;;4991972;28;20077;-45
2023/04/08 05:33:15;;;;;;;7.72;6.10;;;6.80;99.90;;;;;;4995078;28;20018;-46
2023/04/08 05:35:40;;;;;;;6.25;5.30;;;6.80;99.90;;;;;;4995416;28;20077;-47
2023/04/08 05:38:06;;;;;;;6.97;6.07;;;6.50;99.90;;;;;;4995321;28;20484;-45
2023/04/08 05:40:32;;;;;;;7.40;5.85;;;6.80;99.90;;;;;;4995413;28;20026;-45
2023/04/08 05:42:57;;;;;;;6.97;6.15;;;6.80;99.90;;;;;;5020413;23;20046;-42
2023/04/08 05:45:23;;;;;;;7.93;6.28;;;7.00;99.90;;;;;;5034018;28;20589;-44
2023/04/08 05:47:48;;;;;;;7.03;6.03;;;6.80;99.90;;;;;;5033261;28;20034;-42
2023/04/08 05:50:14;;;;;;;7.80;6.50;;;6.60;99.90;;;;;;5033231;28;20496;-40
2023/04/08 05:52:43;;;;;;;6.38;5.63;;;6.80;99.90;;;;;;5034078;28;20021;-41
2023/04/08 05:55:09;;;;;;;7.75;6.07;;;6.80;99.90;;;;;;5034263;28;20111;-38
2023/04/08 05:57:35;;;;;;;6.22;5.10;;;6.90;99.90;;;;;;5034234;28;20421;-43
2023/04/08 06:00:00;;;;;;;7.53;5.90;;;6.90;99.90;;;;;;5034027;28;20032;-42
2023/04/08 06:02:26;;;;;;;11.32;5.93;;;6.90;99.90;;;;;;5016187;28;20040;-45
2023/04/08 06:04:51;;;;;;;8.07;6.30;;;6.90;99.90;;;;;;5016102;28;20508;-45
2023/04/08 06:07:17;;;;;;;9.65;6.30;;;7.00;99.90;;;;;;5016008;28;20037;-40
2023/04/08 06:09:43;;;;;;;6.75;6.05;;;7.30;99.90;;;;;;5033754;28;20381;-41
2023/04/08 06:12:08;;;;;;;7.38;5.65;;;7.40;99.90;;;;;;5033635;28;20021;-44
2023/04/08 06:14:34;;;;;;;5.53;5.03;;;7.40;99.90;;;;;;5033676;28;20075;-40
2023/04/08 06:16:59;;;;;;;7.68;4.70;;;7.50;99.90;;;;;;5033824;28;20104;-43
2023/04/08 06:19:25;;;;;;;7.55;5.07;;;7.50;99.90;;;;;;5033489;28;20443;-43
2023/04/08 06:21:50;;;;;;;6.07;5.18;;;7.60;99.90;;;;;;5033479;28;20211;-44
2023/04/08 06:24:16;;;;;;;6.18;5.15;;;7.60;99.90;;;;;;5033527;28;20104;-42
2023/04/08 06:26:42;;;;;;;7.65;5.45;;;7.60;99.90;;;;;;5033852;28;20025;-41
2023/04/08 06:29:07;;;;;;;7.28;5.30;;;7.60;99.90;;;;;;5033615;28;20104;-44
2023/04/08 06:31:33;;;;;;;6.25;5.43;;;7.60;99.90;;;;;;5033400;28;20128;-46
2023/04/08 06:33:58;;;;;;;7.30;5.95;;;7.70;99.90;;;;;;5033063;28;20106;-41
2023/04/08 06:36:24;;;;;;;6.53;5.80;;;7.80;99.90;;;;;;5033253;28;20033;-38
2023/04/08 06:38:50;;;;;;;6.75;5.93;;;7.80;99.90;;;;;;5033197;28;20071;-42
2023/04/08 06:41:15;;;;;;;7.03;6.10;;;7.90;99.90;;;;;;5033206;28;20029;-42
2023/04/08 06:43:41;;;;;;;8.25;5.60;;;8.00;99.90;;;;;;5032514;28;20037;-39
2023/04/08 06:46:06;;;;;;;6.60;5.68;;;8.20;99.90;;;;;;5032895;28;20090;-42
2023/04/08 06:48:32;;;;;;;7.78;6.70;;;8.20;99.90;;;;;;5033063;28;20096;-42
2023/04/08 06:50:59;;;;;;;7.57;6.40;;;8.30;99.90;;;;;;5033208;28;20026;-41
2023/04/08 06:53:28;;;;;;;7.65;6.18;;;8.40;99.90;;;;;;5032839;28;20017;-42
2023/04/08 06:55:53;;;;;;;10.60;8.23;;;8.40;99.90;;;;;;5033103;28;20017;-41
2023/04/08 06:58:19;;;;;;;12.00;7.35;;;8.40;99.90;;;;;;5032942;28;20021;-41
2023/04/08 07:00:46;;;;;;;8.38;7.50;;;8.40;99.90;;;;;;5032869;28;20393;-42
2023/04/08 07:03:11;;;;;;;9.02;8.13;;;8.40;99.90;;;;;;5032714;28;20033;-44
2023/04/08 07:05:37;;;;;;;8.35;7.45;;;8.30;99.90;;;;;;5033026;28;20033;-43
2023/04/08 07:08:03;;;;;;;8.13;7.32;;;8.40;99.90;;;;;;5032641;28;20014;-41
2023/04/08 07:10:29;;;;;;;10.65;7.50;;;8.20;99.90;;;;;;5032637;28;20021;-41
2023/04/08 07:12:55;;;;;;;8.25;7.45;;;8.20;99.90;;;;;;5032545;28;20052;-40
2023/04/08 07:15:21;;;;;;;9.60;8.27;;;8.10;99.90;;;;;;5032790;28;20057;-41
2023/04/08 07:17:46;;;;;;;10.02;8.27;;;8.20;99.90;;;;;;5032603;28;20032;-41
2023/04/08 07:20:12;;;;;;;11.35;7.95;;;8.30;99.90;;;;;;5032601;28;20041;-42
2023/04/08 07:22:38;;;;;;;9.98;7.70;;;8.40;99.90;;;;;;5032347;28;20492;-44
2023/04/08 07:25:04;;;;;;;9.57;7.68;;;8.50;99.90;;;;;;5032424;28;20040;-41
2023/04/08 07:27:30;;;;;;;9.02;8.05;;;8.50;99.90;;;;;;5032235;28;20048;-42
2023/04/08 07:29:55;;;;;;;9.80;7.65;;;8.40;99.90;;;;;;5032314;28;20022;-42
2023/04/08 07:32:21;;;;;;;9.48;8.57;;;8.40;99.90;;;;;;5031928;28;20151;-41
2023/04/08 07:34:46;;;;;;;9.93;8.90;;;8.50;99.90;;;;;;5032267;28;20049;-41
2023/04/08 07:37:12;;;;;;;9.52;8.52;;;8.60;99.90;;;;;;5032061;28;20032;-42
2023/04/08 07:39:37;;;;;;;11.32;9.88;;;8.60;99.90;;;;;;5014540;28;20025;-44
2023/04/08 07:42:03;;;;;;;16.40;9.52;;;8.80;99.90;;;;;;5032105;28;20029;-42
2023/04/08 07:44:28;;;;;;;12.85;9.73;;;9.00;99.90;;;;;;5032011;28;20033;-43
2023/04/08 07:46:54;;;;;;;10.25;8.82;;;9.10;99.90;;;;;;5032255;28;20024;-41
2023/04/08 07:49:20;;;;;;;11.60;8.65;;;9.30;99.90;;;;;;5031976;28;20108;-42
2023/04/08 07:51:46;;;;;;;9.90;8.88;;;9.40;99.90;;;;;;5031989;28;20049;-41
2023/04/08 07:54:15;;;;;;;13.07;10.20;;;9.60;99.90;;;;;;5013443;28;20485;-43
2023/04/08 07:56:43;;;;;;;12.82;9.85;;;9.70;99.90;;;;;;5031981;28;20072;-44
2023/04/08 07:59:11;;;;;;;12.32;10.05;;;10.00;99.90;;;;;;5032156;28;20029;-42
2023/04/08 08:01:37;;;;;;;12.00;9.55;;;10.10;99.90;;;;;;5014224;28;20543;-41
2023/04/08 08:04:03;;;;;;;10.75;8.75;;;10.00;99.90;;;;;;5014063;28;20026;-42
2023/04/08 08:06:31;;;;;;;17.50;10.10;;;10.00;99.90;;;;;;5032190;28;20025;-43
2023/04/08 08:08:57;;;;;;;13.00;10.02;;;9.80;99.90;;;;;;5031869;28;20035;-41
2023/04/08 08:11:22;;;;;;;10.68;8.88;;;10.00;99.90;;;;;;5032316;28;20088;-42
2023/04/08 08:13:48;;;;;;;11.70;9.50;;;10.20;99.90;;;;;;5032119;28;20127;-43
2023/04/08 08:16:13;;;;;;;11.00;9.73;;;10.30;99.90;;;;;;5032318;28;20037;-42
2023/04/08 08:18:40;;;;;;;11.25;9.15;;;10.30;99.90;;;;;;5032229;28;20045;-43
2023/04/08 08:21:06;;;;;;;10.20;9.15;;;10.30;99.90;;;;;;5032074;28;20028;-42
2023/04/08 08:23:31;;;;;;;11.90;9.32;;;10.20;99.90;;;;;;5031793;28;20503;-41
2023/04/08 08:26:02;;;;;;;12.57;9.43;;;10.10;99.90;;;;;;5032364;28;20026;-46
2023/04/08 08:28:27;;;;;;;13.00;9.93;;;10.10;99.90;;;;;;5031906;28;20072;-44
2023/04/08 08:30:53;;;;;;;12.10;9.85;;;10.10;99.90;;;;;;5031634;28;20060;-43
2023/04/08 08:33:18;;;;;;;15.05;9.27;;;10.20;99.90;;;;;;5030819;28;20032;-42
2023/04/08 08:35:44;;;;;;;10.98;8.60;;;10.10;99.90;;;;;;5031555;28;20079;-43
2023/04/08 08:38:09;;;;;;;12.63;10.02;;;10.00;99.90;;;;;;5013023;28;20021;-46
2023/04/08 08:40:35;;;;;;;11.02;8.73;;;10.00;99.90;;;;;;5031326;28;20017;-42
2023/04/08 08:43:01;;;;;;;11.10;9.48;;;10.10;99.90;;;;;;5031194;28;20029;-41
2023/04/08 08:45:26;;;;;;;12.88;9.95;;;10.00;99.90;;;;;;5004269;28;20021;-42
2023/04/08 08:47:52;;;;;;;12.23;9.73;;;10.00;99.90;;;;;;5031052;28;20026;-46
2023/04/08 08:50:18;;;;;;;10.27;9.18;;;10.00;99.90;;;;;;5012723;28;20022;-40
2023/04/08 08:52:50;;;;;;;12.50;9.45;;;10.00;99.90;;;;;;5030077;28;20010;-42
2023/04/08 08:55:20;;;;;;;10.27;9.10;;;9.90;99.90;;;;;;5013430;28;20079;-43
2023/04/08 08:57:49;;;;;;;11.18;9.98;;;9.80;99.90;;;;;;5031435;28;20493;-43
2023/04/08 09:00:15;;;;;;;11.68;9.98;;;9.80;99.90;;;;;;5013603;28;20441;-42
2023/04/08 09:02:41;;;;;;;15.43;10.25;;;9.80;99.90;;;;;;5031631;28;20057;-44
2023/04/08 09:05:07;;;;;;;11.88;9.80;;;9.90;99.90;;;;;;5032058;28;20065;-43
2023/04/08 09:07:35;;;;;;;15.77;10.20;;;9.90;99.90;;;;;;5035203;28;20207;-44
2023/04/08 09:10:01;;;;;;;11.52;9.90;;;9.80;99.90;;;;;;5035064;28;20052;-44
2023/04/08 09:12:27;;;;;;;11.65;9.40;;;9.80;99.90;;;;;;5034473;28;20596;-47
2023/04/08 09:15:22;;;;;;;13.35;10.95;;;9.80;99.90;;;;;;5035122;28;20112;-45
2023/04/08 09:17:47;;;;;;;14.48;10.77;;;9.70;99.90;;;;;;5025437;28;20072;-40
2023/04/08 09:20:14;;;;;;;14.90;10.38;;;9.80;99.90;;;;;;5033977;28;20491;-44
2023/04/08 09:23:00;;;;;;;11.95;9.82;;;9.90;99.90;;;;;;5034167;28;20026;-41
2023/04/08 09:25:28;;;;;;;13.05;9.93;;;10.00;99.90;;;;;;5014756;28;20482;-43
2023/04/08 09:27:54;;;;;;;12.05;9.80;;;10.00;99.90;;;;;;5022409;28;20021;-44
2023/04/08 09:30:21;;;;;;;12.15;9.95;;;10.00;99.90;;;;;;5034550;28;20545;-44
2023/04/08 09:32:52;;;;;;;15.55;9.75;;;9.80;99.90;;;;;;5034210;28;20032;-42
2023/04/08 09:35:19;;;;;;;11.93;9.75;;;9.90;99.90;;;;;;5034828;28;20482;-45
2023/04/08 09:37:45;;;;;;;13.27;10.60;;;9.80;99.90;;;;;;5033138;28;20090;-43
2023/04/08 09:40:11;;;;;;;13.63;10.80;;;9.80;99.90;;;;;;5034145;28;20060;-42
2023/04/08 09:42:39;;;;;;;14.57;10.93;;;9.80;99.90;;;;;;5033874;28;20049;-44
2023/04/08 09:45:07;;;;;;;13.05;9.85;;;9.90;99.90;;;;;;5034307;28;20029;-41
2023/04/08 09:47:43;;;;;;;13.13;10.07;;;9.80;99.90;;;;;;5034456;28;20021;-43
2023/04/08 09:50:09;;;;;;;12.98;10.85;;;9.90;99.90;;;;;;5034289;28;20125;-45
2023/04/08 09:52:53;;;;;;;13.13;10.88;;;10.10;99.90;;;;;;5034302;28;20021;-42
2023/04/08 09:55:22;;;;;;;14.77;11.68;;;10.10;99.90;;;;;;5030621;28;20092;-42
2023/04/08 09:58:04;;;;;;;14.27;11.23;;;10.00;99.90;;;;;;5034199;28;20013;-42
2023/04/08 10:00:51;;;;;;;13.98;10.40;;;10.00;99.90;;;;;;5016330;28;20035;-42
2023/04/08 10:03:30;;;;;;;14.93;9.30;;;9.90;99.90;;;;;;5033788;28;20044;-40
2023/04/08 10:06:00;;;;;;;12.45;10.10;;;9.80;99.90;;;;;;5016220;28;20075;-42
2023/04/08 10:08:26;;;;;;;15.20;9.82;;;9.90;99.90;;;;;;5033947;28;20096;-43
2023/04/08 10:10:53;;;;;;;14.35;10.07;;;9.90;99.90;;;;;;5034350;28;20040;-42
2023/04/08 10:13:20;;;;;;;13.98;9.75;;;10.00;99.90;;;;;;5033973;28;20026;-44
2023/04/08 10:15:46;;;;;;;12.10;10.50;;;10.00;99.90;;;;;;5033995;28;20041;-45
2023/04/08 10:18:18;;;;;;;18.48;14.02;;;10.20;99.90;;;;;;5017420;28;20029;-43
2023/04/08 10:20:47;;;;;;;14.38;10.32;;;10.50;99.90;;;;;;5033257;28;20061;-41
2023/04/08 10:23:17;;;;;;;16.30;10.70;;;10.80;99.90;;;;;;5033893;28;20013;-40
2023/04/08 10:25:44;;;;;;;12.88;10.38;;;10.80;99.90;;;;;;5016540;28;20287;-41
2023/04/08 10:28:16;;;;;;;12.77;9.50;;;10.90;99.90;;;;;;5015998;28;20026;-43
2023/04/08 10:30:49;;;;;;;11.20;10.00;;;11.10;99.90;;;;;;5033831;28;20025;-44
2023/04/08 10:33:18;;;;;;;11.95;9.63;;;11.20;99.90;;;;;;5015178;28;20124;-42
2023/04/08 10:35:47;;;;;;;15.82;10.10;;;11.40;99.90;;;;;;5032270;28;20025;-41
2023/04/08 10:38:14;;;;;;;10.07;8.40;;;11.50;99.90;;;;;;5032909;28;20053;-42
2023/04/08 10:40:41;;;;;;;13.52;9.30;;;11.50;99.90;;;;;;5015902;28;20448;-45
2023/04/08 10:43:09;;;;;;;12.20;9.23;;;11.50;99.90;;;;;;5015288;28;20037;-45
2023/04/08 10:45:34;;;;;;;12.35;8.52;;;11.70;99.90;;;;;;5033433;28;20437;-47
2023/04/08 10:48:21;;;;;;;8.75;7.82;;;11.50;99.90;;;;;;5033736;28;20018;-43
2023/04/08 10:50:58;;;;;;;11.60;8.15;;;11.60;99.90;;;;;;5032995;28;20048;-44
2023/04/08 10:53:35;;;;;;;9.88;8.55;;;11.50;99.90;;;;;;5021513;28;20060;-42
2023/04/08 10:56:17;;;;;;;11.43;7.88;;;11.50;99.90;;;;;;5032815;28;20052;-44
2023/04/08 10:58:50;;;;;;;14.80;7.70;;;11.60;99.90;;;;;;5013025;28;20049;-44
2023/04/08 11:01:16;;;;;;;8.73;7.45;;;11.50;99.90;;;;;;5013414;28;20017;-43
2023/04/08 11:03:42;;;;;;;29.15;19.55;;;11.50;99.90;;;;;;5012856;28;20072;-48
2023/04/08 11:06:07;;;;;;;81.50;47.17;;;11.70;99.90;;;;;;5012910;28;20030;-44
2023/04/08 11:08:35;;;;;;;14.77;9.20;;;11.40;99.90;;;;;;5014130;28;20437;-43
2023/04/08 11:11:01;;;;;;;9.88;8.07;;;11.30;99.90;;;;;;5030075;28;20021;-43
2023/04/08 11:13:27;;;;;;;11.10;9.57;;;11.10;99.90;;;;;;5032160;28;20397;-47
2023/04/08 11:16:05;;;;;;;15.55;9.48;;;10.80;99.90;;;;;;5013543;28;20512;-47
2023/04/08 11:18:31;;;;;;;10.65;9.05;;;10.70;99.90;;;;;;5031671;28;20297;-54
2023/04/08 11:20:57;;;;;;;12.45;8.27;;;10.80;99.90;;;;;;5037519;28;20018;-46
2023/04/08 11:23:26;;;;;;;11.57;8.93;;;10.90;99.90;;;;;;5052430;28;20103;-47
2023/04/08 11:25:52;;;;;;;12.52;8.15;;;10.80;99.90;;;;;;5038611;28;20025;-48
2023/04/08 11:28:18;;;;;;;12.40;8.32;;;10.80;99.90;;;;;;5031636;28;20521;-50
2023/04/08 11:30:44;;;;;;;11.40;8.70;;;10.70;99.90;;;;;;5031448;28;20029;-45
2023/04/08 11:33:11;;;;;;;11.20;8.73;;;10.70;99.90;;;;;;5031016;28;20038;-49
2023/04/08 11:35:41;;;;;;;10.77;8.65;;;10.80;99.90;;;;;;5039303;28;20515;-44
2023/04/08 11:38:08;;;;;;;13.70;8.15;;;10.90;99.90;;;;;;5052289;28;20497;-49
2023/04/08 11:40:34;;;;;;;10.38;8.48;;;11.10;99.90;;;;;;5032858;28;20061;-55
2023/04/08 11:43:12;;;;;;;11.27;8.30;;;11.10;99.90;;;;;;5036035;22;20438;-53
2023/04/08 11:45:39;;;;;;;10.73;8.40;;;11.30;99.90;;;;;;4961239;28;20030;-49
2023/04/08 11:48:12;;;;;;;11.75;8.55;;;11.40;99.90;;;;;;4973173;28;20464;-53
2023/04/08 11:50:39;;;;;;;11.20;9.15;;;11.50;99.90;;;;;;4973225;28;20026;-50
2023/04/08 11:53:16;;;;;;;8.20;7.30;;;11.50;99.90;;;;;;4975939;28;20053;-50
2023/04/08 11:55:42;;;;;;;9.18;8.27;;;11.90;99.90;;;;;;4973391;28;20453;-51
2023/04/08 11:58:07;;;;;;;9.77;8.13;;;12.20;99.90;;;;;;4973084;28;20067;-52
2023/04/08 12:00:33;;;;;;;11.27;7.95;;;12.00;99.90;;;;;;4973826;28;20034;-51
2023/04/08 12:02:58;;;;;;;9.55;7.85;;;12.20;99.90;;;;;;4971717;28;20034;-51
2023/04/08 12:05:24;;;;;;;8.93;6.97;;;12.50;99.90;;;;;;4954038;29;20034;-53
2023/04/08 12:07:49;;;;;;;9.40;6.85;;;12.50;99.90;;;;;;4954447;29;20066;-58
2023/04/08 12:10:15;;;;;;;11.55;7.45;;;12.70;99.90;;;;;;4954411;29;20033;-54
2023/04/08 12:12:41;;;;;;;8.13;6.43;;;12.80;99.90;;;;;;4937427;29;20133;-51
2023/04/08 12:15:07;;;;;;;9.60;6.20;;;13.00;99.90;;;;;;4952669;28;20459;-50
2023/04/08 12:17:33;;;;;;;18.85;12.55;;;12.80;99.90;;;;;;4973239;28;20038;-49
2023/04/08 12:19:59;;;;;;;7.47;6.13;;;13.00;99.90;;;;;;4974037;28;20027;-49
2023/04/08 12:22:25;;;;;;;8.18;6.72;;;12.40;99.90;;;;;;4973272;28;20030;-53
2023/04/08 12:24:51;;;;;;;9.80;6.13;;;12.50;99.90;;;;;;4973534;28;20458;-50
2023/04/08 12:27:17;;;;;;;9.15;5.43;;;12.40;99.90;;;;;;4972064;28;20027;-51
2023/04/08 12:29:43;;;;;;;10.75;6.43;;;12.40;99.90;;;;;;4956265;28;20058;-49
2023/04/08 12:32:08;;;;;;;7.13;5.20;;;12.30;99.90;;;;;;4972944;28;20023;-55
2023/04/08 12:34:35;;;;;;;7.65;5.97;;;12.40;99.90;;;;;;4972756;28;20050;-52
2023/04/08 12:37:01;;;;;;;5.50;4.25;;;12.20;99.90;;;;;;4955831;28;20035;-50
2023/04/08 12:39:27;;;;;;;5.00;4.50;;;12.10;99.90;;;;;;4945977;28;20118;-55
2023/04/08 12:41:53;;;;;;;6.05;5.40;;;12.00;99.90;;;;;;4957759;29;20054;-52
2023/04/08 12:44:18;;;;;;;6.65;4.63;;;12.00;99.90;;;;;;4958201;28;20035;-49
2023/04/08 12:46:47;;;;;;;5.45;4.90;;;12.00;99.90;;;;;;4959644;28;20439;-50
2023/04/08 12:49:12;;;;;;;6.38;5.40;;;11.90;99.90;;;;;;4977367;28;20019;-48